sensor_id;sensor_type;location;lat;lon;timestamp;temperature;humidity
71514;DHT22;59335;46.652;21.272;2023-09-08T00:03:00;26.96;42.59
71514;DHT22;59335;46.652;21.272;2023-09-08T00:06:02;26.95;42.65
71514;DHT22;59335;46.652;21.272;2023-09-08T00:09:07;26.92;42.63
71514;DHT22;59335;46.652;21.272;2023-09-08T00:12:10;26.91;42.64
71514;DHT22;59335;46.652;21.272;2023-09-08T00:15:13;26.93;42.67
71514;DHT22;59335;46.652;21.272;2023-09-08T00:18:16;26.92;42.64
71514;DHT22;59335;46.652;21.272;2023-09-08T00:21:19;26.91;42.69
71514;DHT22;59335;46.652;21.272;2023-09-08T00:24:22;26.93;42.64
71514;DHT22;59335;46.652;21.272;2023-09-08T00:27:25;26.93;42.65
71514;DHT22;59335;46.652;21.272;2023-09-08T00:30:28;26.88;42.70
71514;DHT22;59335;46.652;21.272;2023-09-08T00:33:31;26.91;42.67
71514;DHT22;59335;46.652;21.272;2023-09-08T00:36:34;26.91;42.70
71514;DHT22;59335;46.652;21.272;2023-09-08T00:39:37;26.91;42.66
71514;DHT22;59335;46.652;21.272;2023-09-08T00:42:40;26.91;42.73
71514;DHT22;59335;46.652;21.272;2023-09-08T00:45:43;26.91;42.70
71514;DHT22;59335;46.652;21.272;2023-09-08T00:48:46;26.92;42.64
71514;DHT22;59335;46.652;21.272;2023-09-08T00:51:49;26.91;42.64
71514;DHT22;59335;46.652;21.272;2023-09-08T00:54:52;26.91;42.74
71514;DHT22;59335;46.652;21.272;2023-09-08T00:57:55;26.89;42.72
71514;DHT22;59335;46.652;21.272;2023-09-08T01:00:58;26.89;42.72
71514;DHT22;59335;46.652;21.272;2023-09-08T01:04:01;26.92;42.70
71514;DHT22;59335;46.652;21.272;2023-09-08T01:07:05;26.88;42.67
71514;DHT22;59335;46.652;21.272;2023-09-08T01:10:08;26.91;42.66
71514;DHT22;59335;46.652;21.272;2023-09-08T01:13:11;26.89;42.70
71514;DHT22;59335;46.652;21.272;2023-09-08T01:16:14;26.91;42.68
71514;DHT22;59335;46.652;21.272;2023-09-08T01:19:17;26.89;42.72
71514;DHT22;59335;46.652;21.272;2023-09-08T01:22:36;26.92;42.67
71514;DHT22;59335;46.652;21.272;2023-09-08T01:26:10;26.88;42.68
71514;DHT22;59335;46.652;21.272;2023-09-08T01:29:15;26.92;42.67
71514;DHT22;59335;46.652;21.272;2023-09-08T01:32:19;26.86;42.75
71514;DHT22;59335;46.652;21.272;2023-09-08T01:35:23;26.89;42.77
71514;DHT22;59335;46.652;21.272;2023-09-08T01:38:26;26.89;42.70
71514;DHT22;59335;46.652;21.272;2023-09-08T01:41:30;26.88;42.74
71514;DHT22;59335;46.652;21.272;2023-09-08T01:44:33;26.91;42.75
71514;DHT22;59335;46.652;21.272;2023-09-08T01:47:37;26.86;42.70
71514;DHT22;59335;46.652;21.272;2023-09-08T01:50:40;26.85;42.81
71514;DHT22;59335;46.652;21.272;2023-09-08T01:53:43;26.85;42.78
71514;DHT22;59335;46.652;21.272;2023-09-08T01:56:46;26.84;42.79
71514;DHT22;59335;46.652;21.272;2023-09-08T01:59:48;26.85;42.77
71514;DHT22;59335;46.652;21.272;2023-09-08T02:02:51;26.85;42.79
71514;DHT22;59335;46.652;21.272;2023-09-08T02:05:54;26.86;42.77
71514;DHT22;59335;46.652;21.272;2023-09-08T02:08:56;26.86;42.77
71514;DHT22;59335;46.652;21.272;2023-09-08T02:12:01;26.85;42.78
71514;DHT22;59335;46.652;21.272;2023-09-08T02:15:04;26.84;42.82
71514;DHT22;59335;46.652;21.272;2023-09-08T02:18:09;26.85;42.81
71514;DHT22;59335;46.652;21.272;2023-09-08T02:21:12;26.86;42.75
71514;DHT22;59335;46.652;21.272;2023-09-08T02:24:14;26.85;42.83
71514;DHT22;59335;46.652;21.272;2023-09-08T02:27:17;26.85;42.76
71514;DHT22;59335;46.652;21.272;2023-09-08T02:30:21;26.85;42.76
71514;DHT22;59335;46.652;21.272;2023-09-08T02:33:24;26.85;42.78
71514;DHT22;59335;46.652;21.272;2023-09-08T02:36:27;26.84;42.79
71514;DHT22;59335;46.652;21.272;2023-09-08T02:39:32;26.82;42.79
71514;DHT22;59335;46.652;21.272;2023-09-08T02:42:35;26.85;42.80
71514;DHT22;59335;46.652;21.272;2023-09-08T02:45:38;26.79;42.79
71514;DHT22;59335;46.652;21.272;2023-09-08T02:48:41;26.84;42.73
71514;DHT22;59335;46.652;21.272;2023-09-08T02:51:44;26.84;42.75
71514;DHT22;59335;46.652;21.272;2023-09-08T02:54:47;26.84;42.81
71514;DHT22;59335;46.652;21.272;2023-09-08T02:57:50;26.84;42.83
71514;DHT22;59335;46.652;21.272;2023-09-08T03:00:53;26.82;42.86
71514;DHT22;59335;46.652;21.272;2023-09-08T03:03:56;26.84;42.80
71514;DHT22;59335;46.652;21.272;2023-09-08T03:07:00;26.84;42.82
71514;DHT22;59335;46.652;21.272;2023-09-08T03:10:03;26.79;42.87
71514;DHT22;59335;46.652;21.272;2023-09-08T03:13:06;26.81;42.80
71514;DHT22;59335;46.652;21.272;2023-09-08T03:16:09;26.79;42.84
71514;DHT22;59335;46.652;21.272;2023-09-08T03:19:11;26.79;42.83
71514;DHT22;59335;46.652;21.272;2023-09-08T03:22:14;26.82;42.77
71514;DHT22;59335;46.652;21.272;2023-09-08T03:25:17;26.79;42.80
71514;DHT22;59335;46.652;21.272;2023-09-08T03:28:20;26.79;42.80
71514;DHT22;59335;46.652;21.272;2023-09-08T03:31:23;26.81;42.77
71514;DHT22;59335;46.652;21.272;2023-09-08T03:34:26;26.78;42.79
71514;DHT22;59335;46.652;21.272;2023-09-08T03:37:29;26.79;42.84
71514;DHT22;59335;46.652;21.272;2023-09-08T03:40:33;26.78;42.83
71514;DHT22;59335;46.652;21.272;2023-09-08T03:43:35;26.78;42.88
71514;DHT22;59335;46.652;21.272;2023-09-08T03:46:39;26.76;42.80
71514;DHT22;59335;46.652;21.272;2023-09-08T03:49:42;26.81;42.83
71514;DHT22;59335;46.652;21.272;2023-09-08T03:52:48;26.78;42.81
71514;DHT22;59335;46.652;21.272;2023-09-08T03:55:51;26.81;42.79
71514;DHT22;59335;46.652;21.272;2023-09-08T03:58:55;26.79;42.83
71514;DHT22;59335;46.652;21.272;2023-09-08T04:01:57;26.81;42.75
71514;DHT22;59335;46.652;21.272;2023-09-08T04:05:00;26.78;42.76
71514;DHT22;59335;46.652;21.272;2023-09-08T04:08:04;26.76;42.83
71514;DHT22;59335;46.652;21.272;2023-09-08T04:11:08;26.76;42.85
71514;DHT22;59335;46.652;21.272;2023-09-08T04:14:12;26.76;42.83
71514;DHT22;59335;46.652;21.272;2023-09-08T04:17:15;26.78;42.82
71514;DHT22;59335;46.652;21.272;2023-09-08T04:20:17;26.78;42.83
71514;DHT22;59335;46.652;21.272;2023-09-08T04:23:20;26.79;42.82
71514;DHT22;59335;46.652;21.272;2023-09-08T04:26:24;26.76;42.86
71514;DHT22;59335;46.652;21.272;2023-09-08T04:29:26;26.79;42.86
71514;DHT22;59335;46.652;21.272;2023-09-08T04:32:30;26.78;42.85
71514;DHT22;59335;46.652;21.272;2023-09-08T04:35:33;26.76;42.84
71514;DHT22;59335;46.652;21.272;2023-09-08T04:38:35;26.78;42.87
71514;DHT22;59335;46.652;21.272;2023-09-08T04:41:38;26.78;42.90
71514;DHT22;59335;46.652;21.272;2023-09-08T04:44:41;26.81;42.80
71514;DHT22;59335;46.652;21.272;2023-09-08T04:47:45;26.81;42.79
71514;DHT22;59335;46.652;21.272;2023-09-08T04:50:52;26.78;42.82
71514;DHT22;59335;46.652;21.272;2023-09-08T04:53:55;26.81;42.79
71514;DHT22;59335;46.652;21.272;2023-09-08T04:56:58;26.81;42.78
71514;DHT22;59335;46.652;21.272;2023-09-08T05:00:16;26.85;42.74
71514;DHT22;59335;46.652;21.272;2023-09-08T05:03:20;26.82;42.76
71514;DHT22;59335;46.652;21.272;2023-09-08T05:06:23;26.84;42.82
71514;DHT22;59335;46.652;21.272;2023-09-08T05:09:26;26.71;42.45
71514;DHT22;59335;46.652;21.272;2023-09-08T05:12:29;26.45;40.67
71514;DHT22;59335;46.652;21.272;2023-09-08T05:15:32;26.38;40.38
71514;DHT22;59335;46.652;21.272;2023-09-08T05:18:41;26.45;40.11
71514;DHT22;59335;46.652;21.272;2023-09-08T05:21:44;26.28;40.52
71514;DHT22;59335;46.652;21.272;2023-09-08T05:24:47;26.40;40.17
71514;DHT22;59335;46.652;21.272;2023-09-08T05:27:51;26.31;40.07
71514;DHT22;59335;46.652;21.272;2023-09-08T05:30:54;26.21;40.39
71514;DHT22;59335;46.652;21.272;2023-09-08T05:33:57;26.09;40.60
71514;DHT22;59335;46.652;21.272;2023-09-08T05:37:03;26.07;40.44
71514;DHT22;59335;46.652;21.272;2023-09-08T05:40:08;26.04;40.35
71514;DHT22;59335;46.652;21.272;2023-09-08T05:43:21;25.88;40.76
71514;DHT22;59335;46.652;21.272;2023-09-08T05:46:25;25.96;40.53
71514;DHT22;59335;46.652;21.272;2023-09-08T05:49:28;25.97;40.83
71514;DHT22;59335;46.652;21.272;2023-09-08T05:52:31;25.88;41.36
71514;DHT22;59335;46.652;21.272;2023-09-08T05:55:35;25.92;41.19
71514;DHT22;59335;46.652;21.272;2023-09-08T05:58:41;25.72;41.93
71514;DHT22;59335;46.652;21.272;2023-09-08T06:01:44;25.69;41.98
71514;DHT22;59335;46.652;21.272;2023-09-08T06:04:47;25.82;41.62
71514;DHT22;59335;46.652;21.272;2023-09-08T06:07:51;25.94;41.32
71514;DHT22;59335;46.652;21.272;2023-09-08T06:11:11;25.62;41.99
71514;DHT22;59335;46.652;21.272;2023-09-08T06:14:16;25.76;41.62
71514;DHT22;59335;46.652;21.272;2023-09-08T06:17:22;25.66;41.83
71514;DHT22;59335;46.652;21.272;2023-09-08T06:20:25;25.79;41.81
71514;DHT22;59335;46.652;21.272;2023-09-08T06:23:29;25.80;41.77
71514;DHT22;59335;46.652;21.272;2023-09-08T06:26:32;25.80;41.97
71514;DHT22;59335;46.652;21.272;2023-09-08T06:29:36;25.89;41.58
71514;DHT22;59335;46.652;21.272;2023-09-08T06:32:39;25.89;41.71
71514;DHT22;59335;46.652;21.272;2023-09-08T06:35:43;25.82;41.69
71514;DHT22;59335;46.652;21.272;2023-09-08T06:38:54;25.80;41.70
71514;DHT22;59335;46.652;21.272;2023-09-08T06:41:58;25.83;41.94
71514;DHT22;59335;46.652;21.272;2023-09-08T06:45:01;25.96;41.70
71514;DHT22;59335;46.652;21.272;2023-09-08T06:48:04;26.06;41.73
71514;DHT22;59335;46.652;21.272;2023-09-08T06:51:07;25.99;41.85
71514;DHT22;59335;46.652;21.272;2023-09-08T06:54:12;26.07;41.42
71514;DHT22;59335;46.652;21.272;2023-09-08T06:57:19;26.21;41.93
71514;DHT22;59335;46.652;21.272;2023-09-08T07:00:25;26.31;41.90
71514;DHT22;59335;46.652;21.272;2023-09-08T07:03:29;26.43;42.01
71514;DHT22;59335;46.652;21.272;2023-09-08T07:06:42;26.52;41.82
71514;DHT22;59335;46.652;21.272;2023-09-08T07:09:47;26.62;41.72
71514;DHT22;59335;46.652;21.272;2023-09-08T07:12:50;26.68;41.87
71514;DHT22;59335;46.652;21.272;2023-09-08T07:15:55;26.76;41.93
71514;DHT22;59335;46.652;21.272;2023-09-08T07:18:59;26.79;41.95
71514;DHT22;59335;46.652;21.272;2023-09-08T07:22:04;26.95;42.00
71514;DHT22;59335;46.652;21.272;2023-09-08T07:25:11;27.03;41.76
71514;DHT22;59335;46.652;21.272;2023-09-08T07:28:16;27.12;41.58
71514;DHT22;59335;46.652;21.272;2023-09-08T07:31:20;27.19;41.46
71514;DHT22;59335;46.652;21.272;2023-09-08T07:34:26;27.23;42.19
71514;DHT22;59335;46.652;21.272;2023-09-08T07:37:29;27.30;41.68
71514;DHT22;59335;46.652;21.272;2023-09-08T07:40:33;27.33;41.40
71514;DHT22;59335;46.652;21.272;2023-09-08T07:43:37;27.37;41.40
71514;DHT22;59335;46.652;21.272;2023-09-08T07:46:47;27.37;41.60
71514;DHT22;59335;46.652;21.272;2023-09-08T07:49:52;27.40;41.98
71514;DHT22;59335;46.652;21.272;2023-09-08T07:52:56;27.44;42.73
71514;DHT22;59335;46.652;21.272;2023-09-08T07:56:01;27.55;43.46
71514;DHT22;59335;46.652;21.272;2023-09-08T07:59:04;27.54;42.55
71514;DHT22;59335;46.652;21.272;2023-09-08T08:02:07;27.55;42.17
71514;DHT22;59335;46.652;21.272;2023-09-08T08:05:14;27.55;42.15
71514;DHT22;59335;46.652;21.272;2023-09-08T08:18:36;27.67;41.63
71514;DHT22;59335;46.652;21.272;2023-09-08T08:21:41;27.67;41.65
71514;DHT22;59335;46.652;21.272;2023-09-08T08:24:45;27.71;41.64
71514;DHT22;59335;46.652;21.272;2023-09-08T08:27:48;27.76;41.52
71514;DHT22;59335;46.652;21.272;2023-09-08T08:30:52;27.77;41.59
71514;DHT22;59335;46.652;21.272;2023-09-08T08:33:55;27.81;41.54
71514;DHT22;59335;46.652;21.272;2023-09-08T08:36:58;27.80;41.71
71514;DHT22;59335;46.652;21.272;2023-09-08T08:40:00;27.81;41.79
71514;DHT22;59335;46.652;21.272;2023-09-08T08:43:04;27.82;41.84
71514;DHT22;59335;46.652;21.272;2023-09-08T08:46:08;27.81;41.88
71514;DHT22;59335;46.652;21.272;2023-09-08T08:49:15;27.82;42.48
71514;DHT22;59335;46.652;21.272;2023-09-08T08:52:19;27.81;42.01
71514;DHT22;59335;46.652;21.272;2023-09-08T08:55:25;27.78;41.94
71514;DHT22;59335;46.652;21.272;2023-09-08T08:58:28;27.92;42.12
71514;DHT22;59335;46.652;21.272;2023-09-08T09:01:31;27.89;42.10
71514;DHT22;59335;46.652;21.272;2023-09-08T09:04:36;27.87;42.18
71514;DHT22;59335;46.652;21.272;2023-09-08T09:07:41;27.88;41.98
71514;DHT22;59335;46.652;21.272;2023-09-08T09:10:44;27.87;41.96
71514;DHT22;59335;46.652;21.272;2023-09-08T09:13:47;27.88;42.06
71514;DHT22;59335;46.652;21.272;2023-09-08T09:16:50;27.89;42.07
71514;DHT22;59335;46.652;21.272;2023-09-08T09:20:15;27.92;42.13
71514;DHT22;59335;46.652;21.272;2023-09-08T09:23:46;27.89;42.06
71514;DHT22;59335;46.652;21.272;2023-09-08T09:26:51;27.89;42.10
71514;DHT22;59335;46.652;21.272;2023-09-08T09:29:58;27.87;42.02
71514;DHT22;59335;46.652;21.272;2023-09-08T09:33:02;27.88;41.99
71514;DHT22;59335;46.652;21.272;2023-09-08T09:36:05;27.85;41.79
71514;DHT22;59335;46.652;21.272;2023-09-08T09:39:09;27.85;41.69
71514;DHT22;59335;46.652;21.272;2023-09-08T09:42:12;27.84;41.75
71514;DHT22;59335;46.652;21.272;2023-09-08T09:45:26;27.81;41.65
71514;DHT22;59335;46.652;21.272;2023-09-08T09:48:31;27.87;41.93
71514;DHT22;59335;46.652;21.272;2023-09-08T09:51:40;27.84;42.18
71514;DHT22;59335;46.652;21.272;2023-09-08T09:54:44;27.82;42.04
71514;DHT22;59335;46.652;21.272;2023-09-08T09:57:47;27.88;42.21
71514;DHT22;59335;46.652;21.272;2023-09-08T10:00:52;27.81;41.82
71514;DHT22;59335;46.652;21.272;2023-09-08T10:03:57;27.81;42.21
71514;DHT22;59335;46.652;21.272;2023-09-08T10:07:01;27.80;42.24
71514;DHT22;59335;46.652;21.272;2023-09-08T10:10:09;27.80;42.53
71514;DHT22;59335;46.652;21.272;2023-09-08T10:13:13;27.81;42.19
71514;DHT22;59335;46.652;21.272;2023-09-08T10:16:21;27.78;41.85
71514;DHT22;59335;46.652;21.272;2023-09-08T10:19:26;27.74;41.27
71514;DHT22;59335;46.652;21.272;2023-09-08T10:22:30;27.77;41.36
71514;DHT22;59335;46.652;21.272;2023-09-08T10:25:42;27.72;41.69
71514;DHT22;59335;46.652;21.272;2023-09-08T10:28:46;27.62;40.73
71514;DHT22;59335;46.652;21.272;2023-09-08T10:31:50;27.60;41.15
71514;DHT22;59335;46.652;21.272;2023-09-08T10:34:54;27.60;41.22
71514;DHT22;59335;46.652;21.272;2023-09-08T10:38:22;27.61;41.39
71514;DHT22;59335;46.652;21.272;2023-09-08T10:41:27;27.64;41.52
71514;DHT22;59335;46.652;21.272;2023-09-08T10:44:31;27.65;41.49
71514;DHT22;59335;46.652;21.272;2023-09-08T10:47:55;27.64;41.49
71514;DHT22;59335;46.652;21.272;2023-09-08T10:51:05;27.62;41.49
71514;DHT22;59335;46.652;21.272;2023-09-08T10:54:08;27.64;40.84
71514;DHT22;59335;46.652;21.272;2023-09-08T10:57:15;27.64;38.61
71514;DHT22;59335;46.652;21.272;2023-09-08T11:00:18;27.62;37.98
71514;DHT22;59335;46.652;21.272;2023-09-08T11:03:42;27.57;37.74
71514;DHT22;59335;46.652;21.272;2023-09-08T11:06:45;27.57;38.85
71514;DHT22;59335;46.652;21.272;2023-09-08T11:09:48;27.60;38.32
71514;DHT22;59335;46.652;21.272;2023-09-08T11:12:51;27.58;38.65
71514;DHT22;59335;46.652;21.272;2023-09-08T11:15:54;27.60;38.04
71514;DHT22;59335;46.652;21.272;2023-09-08T11:18:57;27.55;38.35
71514;DHT22;59335;46.652;21.272;2023-09-08T11:22:00;27.58;38.71
71514;DHT22;59335;46.652;21.272;2023-09-08T11:25:03;27.55;38.08
71514;DHT22;59335;46.652;21.272;2023-09-08T11:28:09;27.62;37.76
71514;DHT22;59335;46.652;21.272;2023-09-08T11:31:12;27.58;37.92
71514;DHT22;59335;46.652;21.272;2023-09-08T11:34:16;27.58;37.79
71514;DHT22;59335;46.652;21.272;2023-09-08T11:37:19;27.53;38.24
71514;DHT22;59335;46.652;21.272;2023-09-08T11:40:23;27.53;38.59
71514;DHT22;59335;46.652;21.272;2023-09-08T11:43:26;27.57;38.43
71514;DHT22;59335;46.652;21.272;2023-09-08T11:46:37;27.55;38.40
71514;DHT22;59335;46.652;21.272;2023-09-08T11:49:41;27.54;38.49
71514;DHT22;59335;46.652;21.272;2023-09-08T11:52:50;27.57;38.66
71514;DHT22;59335;46.652;21.272;2023-09-08T11:55:53;27.57;38.46
71514;DHT22;59335;46.652;21.272;2023-09-08T11:58:56;27.55;38.05
71514;DHT22;59335;46.652;21.272;2023-09-08T12:01:59;27.57;37.96
71514;DHT22;59335;46.652;21.272;2023-09-08T12:05:03;27.54;37.88
71514;DHT22;59335;46.652;21.272;2023-09-08T12:08:06;27.55;37.96
71514;DHT22;59335;46.652;21.272;2023-09-08T12:11:09;27.54;37.50
71514;DHT22;59335;46.652;21.272;2023-09-08T12:14:13;27.55;37.35
71514;DHT22;59335;46.652;21.272;2023-09-08T12:17:17;27.53;37.53
71514;DHT22;59335;46.652;21.272;2023-09-08T12:20:20;27.55;37.75
71514;DHT22;59335;46.652;21.272;2023-09-08T12:23:24;27.54;37.96
71514;DHT22;59335;46.652;21.272;2023-09-08T12:26:27;27.53;37.95
71514;DHT22;59335;46.652;21.272;2023-09-08T12:29:30;27.51;37.86
71514;DHT22;59335;46.652;21.272;2023-09-08T12:32:32;27.54;38.00
71514;DHT22;59335;46.652;21.272;2023-09-08T12:35:36;27.50;38.23
71514;DHT22;59335;46.652;21.272;2023-09-08T12:38:39;27.62;37.56
71514;DHT22;59335;46.652;21.272;2023-09-08T12:41:42;27.57;37.54
71514;DHT22;59335;46.652;21.272;2023-09-08T12:44:45;27.54;37.59
71514;DHT22;59335;46.652;21.272;2023-09-08T12:47:49;27.51;37.79
71514;DHT22;59335;46.652;21.272;2023-09-08T12:50:52;27.50;38.07
71514;DHT22;59335;46.652;21.272;2023-09-08T12:53:55;27.50;38.34
71514;DHT22;59335;46.652;21.272;2023-09-08T12:56:58;27.47;38.25
71514;DHT22;59335;46.652;21.272;2023-09-08T13:00:01;27.49;38.22
71514;DHT22;59335;46.652;21.272;2023-09-08T13:03:04;27.49;38.34
71514;DHT22;59335;46.652;21.272;2023-09-08T13:06:08;27.49;38.45
71514;DHT22;59335;46.652;21.272;2023-09-08T13:09:12;27.50;38.56
71514;DHT22;59335;46.652;21.272;2023-09-08T13:12:15;27.49;38.58
71514;DHT22;59335;46.652;21.272;2023-09-08T13:15:19;27.49;38.52
71514;DHT22;59335;46.652;21.272;2023-09-08T13:18:22;27.49;38.83
71514;DHT22;59335;46.652;21.272;2023-09-08T13:21:25;27.47;38.56
71514;DHT22;59335;46.652;21.272;2023-09-08T13:24:29;27.47;38.47
71514;DHT22;59335;46.652;21.272;2023-09-08T13:27:32;27.46;38.38
71514;DHT22;59335;46.652;21.272;2023-09-08T13:30:38;27.46;38.59
71514;DHT22;59335;46.652;21.272;2023-09-08T13:33:41;27.43;38.46
71514;DHT22;59335;46.652;21.272;2023-09-08T13:36:45;27.46;38.64
71514;DHT22;59335;46.652;21.272;2023-09-08T13:39:48;27.46;38.16
71514;DHT22;59335;46.652;21.272;2023-09-08T13:42:51;27.44;37.59
71514;DHT22;59335;46.652;21.272;2023-09-08T13:45:54;27.47;37.74
71514;DHT22;59335;46.652;21.272;2023-09-08T13:48:58;27.47;37.90
71514;DHT22;59335;46.652;21.272;2023-09-08T13:52:03;27.46;37.94
71514;DHT22;59335;46.652;21.272;2023-09-08T13:55:08;27.44;37.92
71514;DHT22;59335;46.652;21.272;2023-09-08T13:58:14;27.47;38.14
71514;DHT22;59335;46.652;21.272;2023-09-08T14:01:21;27.44;37.80
71514;DHT22;59335;46.652;21.272;2023-09-08T14:04:28;27.44;37.98
71514;DHT22;59335;46.652;21.272;2023-09-08T14:07:35;27.44;38.02
71514;DHT22;59335;46.652;21.272;2023-09-08T14:10:48;27.44;38.22
71514;DHT22;59335;46.652;21.272;2023-09-08T14:13:59;27.46;38.40
71514;DHT22;59335;46.652;21.272;2023-09-08T14:17:02;27.46;38.67
71514;DHT22;59335;46.652;21.272;2023-09-08T14:20:06;27.46;39.03
71514;DHT22;59335;46.652;21.272;2023-09-08T14:23:11;27.44;39.49
71514;DHT22;59335;46.652;21.272;2023-09-08T14:26:14;27.49;39.76
71514;DHT22;59335;46.652;21.272;2023-09-08T14:29:17;27.47;39.96
71514;DHT22;59335;46.652;21.272;2023-09-08T14:32:21;27.49;40.06
71514;DHT22;59335;46.652;21.272;2023-09-08T14:35:24;27.50;40.22
71514;DHT22;59335;46.652;21.272;2023-09-08T14:38:27;27.47;40.34
71514;DHT22;59335;46.652;21.272;2023-09-08T14:41:31;27.49;40.24
71514;DHT22;59335;46.652;21.272;2023-09-08T14:44:34;27.47;40.24
71514;DHT22;59335;46.652;21.272;2023-09-08T14:47:37;27.46;40.27
71514;DHT22;59335;46.652;21.272;2023-09-08T14:50:41;27.43;40.23
71514;DHT22;59335;46.652;21.272;2023-09-08T14:53:44;27.46;40.11
71514;DHT22;59335;46.652;21.272;2023-09-08T14:56:47;27.44;40.08
71514;DHT22;59335;46.652;21.272;2023-09-08T14:59:50;27.44;40.14
71514;DHT22;59335;46.652;21.272;2023-09-08T15:02:57;27.41;40.09
71514;DHT22;59335;46.652;21.272;2023-09-08T15:06:00;27.40;40.11
71514;DHT22;59335;46.652;21.272;2023-09-08T15:09:04;27.41;40.06
71514;DHT22;59335;46.652;21.272;2023-09-08T15:12:07;27.40;40.08
71514;DHT22;59335;46.652;21.272;2023-09-08T15:15:11;27.40;40.15
71514;DHT22;59335;46.652;21.272;2023-09-08T15:18:14;27.40;40.12
71514;DHT22;59335;46.652;21.272;2023-09-08T15:21:17;27.39;40.23
71514;DHT22;59335;46.652;21.272;2023-09-08T15:24:21;27.40;40.33
71514;DHT22;59335;46.652;21.272;2023-09-08T15:27:25;27.40;40.36
71514;DHT22;59335;46.652;21.272;2023-09-08T15:30:28;27.37;40.40
71514;DHT22;59335;46.652;21.272;2023-09-08T15:33:31;27.37;40.42
71514;DHT22;59335;46.652;21.272;2023-09-08T15:36:34;27.34;40.42
71514;DHT22;59335;46.652;21.272;2023-09-08T15:39:39;27.37;40.41
71514;DHT22;59335;46.652;21.272;2023-09-08T15:42:42;27.36;40.48
71514;DHT22;59335;46.652;21.272;2023-09-08T15:45:46;27.37;40.45
71514;DHT22;59335;46.652;21.272;2023-09-08T15:48:49;27.37;40.47
71514;DHT22;59335;46.652;21.272;2023-09-08T15:51:53;27.36;40.51
71514;DHT22;59335;46.652;21.272;2023-09-08T15:55:15;27.34;40.52
71514;DHT22;59335;46.652;21.272;2023-09-08T15:58:18;27.36;40.57
71514;DHT22;59335;46.652;21.272;2023-09-08T16:01:22;27.34;40.58
71514;DHT22;59335;46.652;21.272;2023-09-08T16:04:25;27.33;40.60
71514;DHT22;59335;46.652;21.272;2023-09-08T16:07:30;27.36;40.64
71514;DHT22;59335;46.652;21.272;2023-09-08T16:10:33;27.36;40.65
71514;DHT22;59335;46.652;21.272;2023-09-08T16:13:37;27.34;40.64
71514;DHT22;59335;46.652;21.272;2023-09-08T16:16:41;27.34;40.70
71514;DHT22;59335;46.652;21.272;2023-09-08T16:19:44;27.34;40.61
71514;DHT22;59335;46.652;21.272;2023-09-08T16:22:48;27.33;40.68
71514;DHT22;59335;46.652;21.272;2023-09-08T16:25:51;27.32;40.64
71514;DHT22;59335;46.652;21.272;2023-09-08T16:28:54;27.33;40.71
71514;DHT22;59335;46.652;21.272;2023-09-08T16:31:57;27.34;40.75
71514;DHT22;59335;46.652;21.272;2023-09-08T16:35:00;27.34;40.71
71514;DHT22;59335;46.652;21.272;2023-09-08T16:38:04;27.30;40.80
71514;DHT22;59335;46.652;21.272;2023-09-08T16:41:07;27.32;40.80
71514;DHT22;59335;46.652;21.272;2023-09-08T16:44:10;27.32;40.83
71514;DHT22;59335;46.652;21.272;2023-09-08T16:47:13;27.30;40.82
71514;DHT22;59335;46.652;21.272;2023-09-08T16:50:16;27.32;40.85
71514;DHT22;59335;46.652;21.272;2023-09-08T16:53:19;27.29;40.89
71514;DHT22;59335;46.652;21.272;2023-09-08T16:56:23;27.27;40.86
71514;DHT22;59335;46.652;21.272;2023-09-08T16:59:26;27.29;40.94
71514;DHT22;59335;46.652;21.272;2023-09-08T17:02:29;27.27;40.96
71514;DHT22;59335;46.652;21.272;2023-09-08T17:05:33;27.29;41.00
71514;DHT22;59335;46.652;21.272;2023-09-08T17:08:36;27.29;40.97
71514;DHT22;59335;46.652;21.272;2023-09-08T17:11:39;27.30;41.03
71514;DHT22;59335;46.652;21.272;2023-09-08T17:14:43;27.26;41.05
71514;DHT22;59335;46.652;21.272;2023-09-08T17:17:46;27.26;41.08
71514;DHT22;59335;46.652;21.272;2023-09-08T17:20:51;27.24;41.08
71514;DHT22;59335;46.652;21.272;2023-09-08T17:23:54;27.26;41.10
71514;DHT22;59335;46.652;21.272;2023-09-08T17:26:58;27.26;41.13
71514;DHT22;59335;46.652;21.272;2023-09-08T17:30:01;27.23;41.15
71514;DHT22;59335;46.652;21.272;2023-09-08T17:33:04;27.24;41.17
71514;DHT22;59335;46.652;21.272;2023-09-08T17:36:09;27.23;41.20
71514;DHT22;59335;46.652;21.272;2023-09-08T17:39:14;27.22;41.21
71514;DHT22;59335;46.652;21.272;2023-09-08T17:42:18;27.24;41.19
71514;DHT22;59335;46.652;21.272;2023-09-08T17:45:22;27.24;41.25
71514;DHT22;59335;46.652;21.272;2023-09-08T17:48:26;27.20;41.26
71514;DHT22;59335;46.652;21.272;2023-09-08T17:51:30;27.22;41.26
71514;DHT22;59335;46.652;21.272;2023-09-08T17:54:35;27.19;41.25
71514;DHT22;59335;46.652;21.272;2023-09-08T17:57:39;27.19;41.36
71514;DHT22;59335;46.652;21.272;2023-09-08T18:00:45;27.22;41.40
71514;DHT22;59335;46.652;21.272;2023-09-08T18:03:53;27.19;41.26
71514;DHT22;59335;46.652;21.272;2023-09-08T18:06:58;27.20;41.37
71514;DHT22;59335;46.652;21.272;2023-09-08T18:10:05;27.19;41.36
71514;DHT22;59335;46.652;21.272;2023-09-08T18:13:10;27.19;41.41
71514;DHT22;59335;46.652;21.272;2023-09-08T18:16:24;27.19;41.40
71514;DHT22;59335;46.652;21.272;2023-09-08T18:19:32;27.19;41.38
71514;DHT22;59335;46.652;21.272;2023-09-08T18:22:41;27.17;41.43
71514;DHT22;59335;46.652;21.272;2023-09-08T18:25:46;27.17;41.47
71514;DHT22;59335;46.652;21.272;2023-09-08T18:28:51;27.19;41.47
71514;DHT22;59335;46.652;21.272;2023-09-08T18:31:58;27.17;41.44
71514;DHT22;59335;46.652;21.272;2023-09-08T18:35:02;27.17;41.44
71514;DHT22;59335;46.652;21.272;2023-09-08T18:38:09;27.17;41.50
71514;DHT22;59335;46.652;21.272;2023-09-08T18:41:16;27.19;41.43
71514;DHT22;59335;46.652;21.272;2023-09-08T18:44:21;27.14;41.55
71514;DHT22;59335;46.652;21.272;2023-09-08T18:47:28;27.16;41.51
71514;DHT22;59335;46.652;21.272;2023-09-08T18:50:34;27.16;41.50
71514;DHT22;59335;46.652;21.272;2023-09-08T18:53:40;27.16;41.52
71514;DHT22;59335;46.652;21.272;2023-09-08T18:56:47;27.14;41.53
71514;DHT22;59335;46.652;21.272;2023-09-08T18:59:55;27.14;41.55
71514;DHT22;59335;46.652;21.272;2023-09-08T19:03:00;27.14;41.55
71514;DHT22;59335;46.652;21.272;2023-09-08T19:06:07;27.13;41.56
71514;DHT22;59335;46.652;21.272;2023-09-08T19:09:16;27.13;41.56
71514;DHT22;59335;46.652;21.272;2023-09-08T19:12:22;27.12;41.56
71514;DHT22;59335;46.652;21.272;2023-09-08T19:15:30;27.13;41.61
71514;DHT22;59335;46.652;21.272;2023-09-08T19:18:39;27.13;41.65